sensor_id;sensor_type;location;lat;lon;timestamp;P1;durP1;ratioP1;P2;durP2;ratioP2
24799;SDS011;12897;50.812;4.430;2024-03-25T00:01:28;7.62;;;4.47;;
24799;SDS011;12897;50.812;4.430;2024-03-25T00:03:55;11.65;;;4.67;;
24799;SDS011;12897;50.812;4.430;2024-03-25T00:06:24;11.95;;;4.80;;
24799;SDS011;12897;50.812;4.430;2024-03-25T00:08:51;10.13;;;4.50;;
24799;SDS011;12897;50.812;4.430;2024-03-25T00:11:19;13.98;;;4.75;;
24799;SDS011;12897;50.812;4.430;2024-03-25T00:13:47;10.40;;;4.47;;
24799;SDS011;12897;50.812;4.430;2024-03-25T00:16:15;10.10;;;3.72;;
24799;SDS011;12897;50.812;4.430;2024-03-25T00:18:43;7.83;;;4.20;;
24799;SDS011;12897;50.812;4.430;2024-03-25T00:21:10;9.38;;;3.83;;
24799;SDS011;12897;50.812;4.430;2024-03-25T00:23:38;6.40;;;3.50;;
24799;SDS011;12897;50.812;4.430;2024-03-25T00:26:05;6.80;;;3.45;;
24799;SDS011;12897;50.812;4.430;2024-03-25T00:28:33;9.80;;;4.58;;
24799;SDS011;12897;50.812;4.430;2024-03-25T00:31:00;8.73;;;4.58;;
24799;SDS011;12897;50.812;4.430;2024-03-25T00:33:28;9.03;;;3.87;;
24799;SDS011;12897;50.812;4.430;2024-03-25T00:35:55;13.88;;;5.45;;
24799;SDS011;12897;50.812;4.430;2024-03-25T00:38:23;7.92;;;4.53;;
24799;SDS011;12897;50.812;4.430;2024-03-25T00:40:50;7.90;;;3.95;;
24799;SDS011;12897;50.812;4.430;2024-03-25T00:43:18;10.48;;;4.47;;
24799;SDS011;12897;50.812;4.430;2024-03-25T00:45:45;12.30;;;4.50;;
24799;SDS011;12897;50.812;4.430;2024-03-25T00:48:13;7.83;;;4.30;;
24799;SDS011;12897;50.812;4.430;2024-03-25T00:50:41;13.43;;;3.85;;
24799;SDS011;12897;50.812;4.430;2024-03-25T00:53:08;7.15;;;3.45;;
24799;SDS011;12897;50.812;4.430;2024-03-25T00:55:35;7.17;;;3.80;;
24799;SDS011;12897;50.812;4.430;2024-03-25T00:58:03;11.48;;;3.40;;
24799;SDS011;12897;50.812;4.430;2024-03-25T01:00:31;8.05;;;3.95;;
24799;SDS011;12897;50.812;4.430;2024-03-25T01:02:59;8.80;;;3.83;;
24799;SDS011;12897;50.812;4.430;2024-03-25T01:05:26;12.63;;;4.20;;
24799;SDS011;12897;50.812;4.430;2024-03-25T01:07:54;7.95;;;4.03;;
24799;SDS011;12897;50.812;4.430;2024-03-25T01:10:21;8.53;;;3.67;;
24799;SDS011;12897;50.812;4.430;2024-03-25T01:12:49;7.30;;;3.85;;
24799;SDS011;12897;50.812;4.430;2024-03-25T01:15:16;5.95;;;3.10;;
24799;SDS011;12897;50.812;4.430;2024-03-25T01:17:44;5.00;;;2.92;;
24799;SDS011;12897;50.812;4.430;2024-03-25T01:20:11;7.22;;;3.37;;
24799;SDS011;12897;50.812;4.430;2024-03-25T01:22:39;8.88;;;3.72;;
24799;SDS011;12897;50.812;4.430;2024-03-25T01:25:08;6.30;;;3.25;;
24799;SDS011;12897;50.812;4.430;2024-03-25T01:27:35;6.62;;;3.55;;
24799;SDS011;12897;50.812;4.430;2024-03-25T01:30:03;6.53;;;2.77;;
24799;SDS011;12897;50.812;4.430;2024-03-25T01:32:33;7.75;;;3.40;;
24799;SDS011;12897;50.812;4.430;2024-03-25T01:35:01;7.55;;;3.30;;
24799;SDS011;12897;50.812;4.430;2024-03-25T01:37:28;6.00;;;3.10;;
24799;SDS011;12897;50.812;4.430;2024-03-25T01:39:56;4.37;;;3.02;;
24799;SDS011;12897;50.812;4.430;2024-03-25T01:42:24;7.75;;;3.42;;
24799;SDS011;12897;50.812;4.430;2024-03-25T01:44:52;8.50;;;3.40;;
24799;SDS011;12897;50.812;4.430;2024-03-25T01:47:20;6.53;;;3.08;;
24799;SDS011;12897;50.812;4.430;2024-03-25T01:49:48;6.70;;;3.62;;
24799;SDS011;12897;50.812;4.430;2024-03-25T01:52:18;11.03;;;4.05;;
24799;SDS011;12897;50.812;4.430;2024-03-25T01:54:46;5.08;;;3.20;;
24799;SDS011;12897;50.812;4.430;2024-03-25T01:57:15;6.35;;;3.15;;
24799;SDS011;12897;50.812;4.430;2024-03-25T01:59:44;8.70;;;3.20;;
24799;SDS011;12897;50.812;4.430;2024-03-25T02:02:12;6.90;;;2.83;;
24799;SDS011;12897;50.812;4.430;2024-03-25T02:04:40;7.03;;;3.42;;
24799;SDS011;12897;50.812;4.430;2024-03-25T02:07:09;5.35;;;2.90;;
24799;SDS011;12897;50.812;4.430;2024-03-25T02:09:39;7.33;;;3.20;;
24799;SDS011;12897;50.812;4.430;2024-03-25T02:12:07;6.53;;;3.20;;
24799;SDS011;12897;50.812;4.430;2024-03-25T02:14:36;5.53;;;3.37;;
24799;SDS011;12897;50.812;4.430;2024-03-25T02:17:04;6.15;;;3.10;;
24799;SDS011;12897;50.812;4.430;2024-03-25T02:19:32;7.30;;;3.67;;
24799;SDS011;12897;50.812;4.430;2024-03-25T02:22:01;6.77;;;3.13;;
24799;SDS011;12897;50.812;4.430;2024-03-25T02:24:29;8.58;;;3.10;;
24799;SDS011;12897;50.812;4.430;2024-03-25T02:26:59;9.90;;;3.27;;
24799;SDS011;12897;50.812;4.430;2024-03-25T02:29:33;6.97;;;3.05;;
24799;SDS011;12897;50.812;4.430;2024-03-25T02:32:01;6.08;;;2.67;;
24799;SDS011;12897;50.812;4.430;2024-03-25T02:34:29;8.48;;;3.22;;
24799;SDS011;12897;50.812;4.430;2024-03-25T02:36:56;7.15;;;2.60;;
24799;SDS011;12897;50.812;4.430;2024-03-25T02:39:24;7.55;;;2.45;;
24799;SDS011;12897;50.812;4.430;2024-03-25T02:41:52;8.83;;;3.20;;
24799;SDS011;12897;50.812;4.430;2024-03-25T02:44:19;4.97;;;3.02;;
24799;SDS011;12897;50.812;4.430;2024-03-25T02:46:48;5.35;;;2.33;;
24799;SDS011;12897;50.812;4.430;2024-03-25T02:49:16;7.58;;;2.95;;
24799;SDS011;12897;50.812;4.430;2024-03-25T02:51:43;9.23;;;3.25;;
24799;SDS011;12897;50.812;4.430;2024-03-25T02:54:11;8.85;;;3.10;;
24799;SDS011;12897;50.812;4.430;2024-03-25T02:56:39;7.25;;;2.98;;
24799;SDS011;12897;50.812;4.430;2024-03-25T02:59:07;7.95;;;3.15;;
24799;SDS011;12897;50.812;4.430;2024-03-25T03:01:34;13.25;;;3.37;;
24799;SDS011;12897;50.812;4.430;2024-03-25T03:04:02;10.32;;;3.10;;
24799;SDS011;12897;50.812;4.430;2024-03-25T03:06:29;11.25;;;3.92;;
24799;SDS011;12897;50.812;4.430;2024-03-25T03:08:57;4.47;;;2.87;;
24799;SDS011;12897;50.812;4.430;2024-03-25T03:11:25;9.05;;;2.80;;
24799;SDS011;12897;50.812;4.430;2024-03-25T03:13:52;5.95;;;2.85;;
24799;SDS011;12897;50.812;4.430;2024-03-25T03:16:20;9.23;;;3.27;;
24799;SDS011;12897;50.812;4.430;2024-03-25T03:18:47;7.03;;;3.52;;
24799;SDS011;12897;50.812;4.430;2024-03-25T03:21:15;7.00;;;3.17;;
24799;SDS011;12897;50.812;4.430;2024-03-25T03:23:43;9.05;;;3.37;;
24799;SDS011;12897;50.812;4.430;2024-03-25T03:26:10;9.23;;;3.10;;
24799;SDS011;12897;50.812;4.430;2024-03-25T03:28:39;10.32;;;3.25;;
24799;SDS011;12897;50.812;4.430;2024-03-25T03:31:07;6.90;;;3.17;;
24799;SDS011;12897;50.812;4.430;2024-03-25T03:33:35;11.18;;;3.62;;
24799;SDS011;12897;50.812;4.430;2024-03-25T03:36:02;11.70;;;4.00;;
24799;SDS011;12897;50.812;4.430;2024-03-25T03:38:30;9.28;;;3.55;;
24799;SDS011;12897;50.812;4.430;2024-03-25T03:40:58;8.45;;;3.25;;
24799;SDS011;12897;50.812;4.430;2024-03-25T03:43:26;7.65;;;3.67;;
24799;SDS011;12897;50.812;4.430;2024-03-25T03:45:54;9.75;;;3.77;;
24799;SDS011;12897;50.812;4.430;2024-03-25T03:48:21;7.95;;;3.47;;
24799;SDS011;12897;50.812;4.430;2024-03-25T03:50:49;10.35;;;4.08;;
24799;SDS011;12897;50.812;4.430;2024-03-25T03:53:16;9.13;;;3.50;;
24799;SDS011;12897;50.812;4.430;2024-03-25T03:55:59;7.42;;;3.70;;
24799;SDS011;12897;50.812;4.430;2024-03-25T03:58:24;7.15;;;3.02;;
24799;SDS011;12897;50.812;4.430;2024-03-25T04:00:52;7.80;;;3.75;;
24799;SDS011;12897;50.812;4.430;2024-03-25T04:03:20;11.08;;;3.77;;
24799;SDS011;12897;50.812;4.430;2024-03-25T04:05:47;9.68;;;3.90;;
24799;SDS011;12897;50.812;4.430;2024-03-25T04:08:15;10.38;;;3.83;;
24799;SDS011;12897;50.812;4.430;2024-03-25T04:10:43;9.43;;;4.03;;
24799;SDS011;12897;50.812;4.430;2024-03-25T04:13:12;8.60;;;3.87;;
24799;SDS011;12897;50.812;4.430;2024-03-25T04:15:40;14.93;;;4.62;;
24799;SDS011;12897;50.812;4.430;2024-03-25T04:18:08;11.70;;;4.80;;
24799;SDS011;12897;50.812;4.430;2024-03-25T04:20:41;9.23;;;4.42;;
24799;SDS011;12897;50.812;4.430;2024-03-25T04:23:06;10.60;;;4.65;;
24799;SDS011;12897;50.812;4.430;2024-03-25T04:25:34;10.95;;;4.30;;
24799;SDS011;12897;50.812;4.430;2024-03-25T04:28:05;7.97;;;3.80;;
24799;SDS011;12897;50.812;4.430;2024-03-25T04:30:33;11.15;;;4.37;;
24799;SDS011;12897;50.812;4.430;2024-03-25T04:33:01;9.70;;;4.53;;
24799;SDS011;12897;50.812;4.430;2024-03-25T04:35:28;14.53;;;4.87;;
24799;SDS011;12897;50.812;4.430;2024-03-25T04:37:56;11.63;;;5.12;;
24799;SDS011;12897;50.812;4.430;2024-03-25T04:40:23;18.82;;;4.70;;
24799;SDS011;12897;50.812;4.430;2024-03-25T04:42:51;11.08;;;4.45;;
24799;SDS011;12897;50.812;4.430;2024-03-25T04:45:18;8.03;;;4.15;;
24799;SDS011;12897;50.812;4.430;2024-03-25T04:47:46;11.50;;;4.45;;
24799;SDS011;12897;50.812;4.430;2024-03-25T04:50:14;13.72;;;4.90;;
24799;SDS011;12897;50.812;4.430;2024-03-25T04:52:41;15.95;;;5.17;;
24799;SDS011;12897;50.812;4.430;2024-03-25T04:55:09;19.57;;;5.08;;
24799;SDS011;12897;50.812;4.430;2024-03-25T04:57:36;11.20;;;4.20;;
24799;SDS011;12897;50.812;4.430;2024-03-25T05:00:04;11.50;;;4.25;;
24799;SDS011;12897;50.812;4.430;2024-03-25T05:02:32;14.15;;;5.40;;
24799;SDS011;12897;50.812;4.430;2024-03-25T05:05:02;17.53;;;5.27;;
24799;SDS011;12897;50.812;4.430;2024-03-25T05:07:29;16.20;;;5.05;;
24799;SDS011;12897;50.812;4.430;2024-03-25T05:09:57;14.38;;;5.05;;
24799;SDS011;12897;50.812;4.430;2024-03-25T05:12:24;11.75;;;4.97;;
24799;SDS011;12897;50.812;4.430;2024-03-25T05:14:54;10.73;;;5.07;;
24799;SDS011;12897;50.812;4.430;2024-03-25T05:17:21;11.75;;;5.35;;
24799;SDS011;12897;50.812;4.430;2024-03-25T05:19:49;13.50;;;4.58;;
24799;SDS011;12897;50.812;4.430;2024-03-25T05:22:16;16.77;;;5.72;;
24799;SDS011;12897;50.812;4.430;2024-03-25T05:24:44;17.90;;;5.70;;
24799;SDS011;12897;50.812;4.430;2024-03-25T05:27:12;15.75;;;5.78;;
24799;SDS011;12897;50.812;4.430;2024-03-25T05:29:39;14.68;;;5.50;;
24799;SDS011;12897;50.812;4.430;2024-03-25T05:32:06;17.05;;;5.40;;
24799;SDS011;12897;50.812;4.430;2024-03-25T05:34:34;18.32;;;6.22;;
24799;SDS011;12897;50.812;4.430;2024-03-25T05:37:02;20.92;;;5.72;;
24799;SDS011;12897;50.812;4.430;2024-03-25T05:39:30;18.82;;;5.92;;
24799;SDS011;12897;50.812;4.430;2024-03-25T05:41:57;11.35;;;5.17;;
24799;SDS011;12897;50.812;4.430;2024-03-25T05:44:25;17.73;;;5.35;;
24799;SDS011;12897;50.812;4.430;2024-03-25T05:46:52;15.93;;;6.65;;
24799;SDS011;12897;50.812;4.430;2024-03-25T05:49:20;17.57;;;6.20;;
24799;SDS011;12897;50.812;4.430;2024-03-25T05:51:47;13.72;;;5.85;;
24799;SDS011;12897;50.812;4.430;2024-03-25T05:54:15;20.57;;;5.78;;
24799;SDS011;12897;50.812;4.430;2024-03-25T05:56:42;21.62;;;6.35;;
24799;SDS011;12897;50.812;4.430;2024-03-25T05:59:10;19.48;;;6.28;;
24799;SDS011;12897;50.812;4.430;2024-03-25T06:01:38;19.20;;;6.33;;
24799;SDS011;12897;50.812;4.430;2024-03-25T06:04:06;17.37;;;5.97;;
24799;SDS011;12897;50.812;4.430;2024-03-25T06:06:33;19.45;;;6.28;;
24799;SDS011;12897;50.812;4.430;2024-03-25T06:09:01;17.60;;;6.35;;
24799;SDS011;12897;50.812;4.430;2024-03-25T06:11:28;18.87;;;6.15;;
24799;SDS011;12897;50.812;4.430;2024-03-25T06:13:56;20.95;;;6.15;;
24799;SDS011;12897;50.812;4.430;2024-03-25T06:16:24;16.00;;;5.53;;
24799;SDS011;12897;50.812;4.430;2024-03-25T06:18:52;26.87;;;8.53;;
24799;SDS011;12897;50.812;4.430;2024-03-25T06:21:19;19.15;;;7.55;;
24799;SDS011;12897;50.812;4.430;2024-03-25T06:23:48;17.87;;;7.58;;
24799;SDS011;12897;50.812;4.430;2024-03-25T06:26:15;20.17;;;7.20;;
24799;SDS011;12897;50.812;4.430;2024-03-25T06:28:43;22.70;;;7.58;;
24799;SDS011;12897;50.812;4.430;2024-03-25T06:31:11;22.45;;;7.47;;
24799;SDS011;12897;50.812;4.430;2024-03-25T06:33:56;30.52;;;7.60;;
24799;SDS011;12897;50.812;4.430;2024-03-25T06:36:42;19.52;;;8.23;;
24799;SDS011;12897;50.812;4.430;2024-03-25T06:39:10;25.25;;;8.68;;
24799;SDS011;12897;50.812;4.430;2024-03-25T06:41:38;20.43;;;8.13;;
24799;SDS011;12897;50.812;4.430;2024-03-25T06:44:06;34.75;;;9.20;;
24799;SDS011;12897;50.812;4.430;2024-03-25T06:46:34;22.67;;;8.00;;
24799;SDS011;12897;50.812;4.430;2024-03-25T06:49:01;21.35;;;7.03;;
24799;SDS011;12897;50.812;4.430;2024-03-25T06:51:29;31.50;;;8.05;;
24799;SDS011;12897;50.812;4.430;2024-03-25T06:53:56;30.60;;;8.40;;
24799;SDS011;12897;50.812;4.430;2024-03-25T06:56:25;25.37;;;9.45;;
24799;SDS011;12897;50.812;4.430;2024-03-25T06:58:56;27.95;;;7.78;;
24799;SDS011;12897;50.812;4.430;2024-03-25T07:01:24;23.10;;;9.00;;
24799;SDS011;12897;50.812;4.430;2024-03-25T07:03:51;26.73;;;8.40;;
24799;SDS011;12897;50.812;4.430;2024-03-25T07:06:22;24.90;;;8.58;;
24799;SDS011;12897;50.812;4.430;2024-03-25T07:08:51;32.00;;;8.38;;
24799;SDS011;12897;50.812;4.430;2024-03-25T07:11:20;28.15;;;9.23;;
24799;SDS011;12897;50.812;4.430;2024-03-25T07:13:48;24.40;;;8.93;;
24799;SDS011;12897;50.812;4.430;2024-03-25T07:16:16;29.20;;;9.50;;
24799;SDS011;12897;50.812;4.430;2024-03-25T07:18:44;30.60;;;9.30;;
24799;SDS011;12897;50.812;4.430;2024-03-25T07:21:14;27.50;;;8.33;;
24799;SDS011;12897;50.812;4.430;2024-03-25T07:23:43;24.25;;;8.18;;
24799;SDS011;12897;50.812;4.430;2024-03-25T07:28:44;27.48;;;8.05;;
24799;SDS011;12897;50.812;4.430;2024-03-25T07:31:10;21.33;;;7.05;;
24799;SDS011;12897;50.812;4.430;2024-03-25T07:33:38;23.30;;;7.50;;
24799;SDS011;12897;50.812;4.430;2024-03-25T07:36:06;23.12;;;7.65;;
24799;SDS011;12897;50.812;4.430;2024-03-25T07:38:37;20.80;;;7.62;;
24799;SDS011;12897;50.812;4.430;2024-03-25T07:41:05;18.00;;;7.53;;
24799;SDS011;12897;50.812;4.430;2024-03-25T07:43:32;27.52;;;6.90;;
24799;SDS011;12897;50.812;4.430;2024-03-25T07:46:00;18.87;;;6.35;;
24799;SDS011;12897;50.812;4.430;2024-03-25T07:48:34;20.50;;;7.97;;
24799;SDS011;12897;50.812;4.430;2024-03-25T07:51:00;18.77;;;6.55;;
24799;SDS011;12897;50.812;4.430;2024-03-25T07:53:29;15.90;;;6.25;;
24799;SDS011;12897;50.812;4.430;2024-03-25T07:55:57;35.17;;;6.15;;
24799;SDS011;12897;50.812;4.430;2024-03-25T07:58:24;20.65;;;6.53;;
24799;SDS011;12897;50.812;4.430;2024-03-25T08:00:52;24.32;;;6.12;;
24799;SDS011;12897;50.812;4.430;2024-03-25T08:03:19;21.30;;;7.45;;
24799;SDS011;12897;50.812;4.430;2024-03-25T08:05:48;17.48;;;5.72;;
24799;SDS011;12897;50.812;4.430;2024-03-25T08:08:15;17.15;;;6.08;;
24799;SDS011;12897;50.812;4.430;2024-03-25T08:10:43;14.38;;;5.80;;
24799;SDS011;12897;50.812;4.430;2024-03-25T08:13:11;19.85;;;6.45;;
24799;SDS011;12897;50.812;4.430;2024-03-25T08:15:39;17.87;;;5.60;;
24799;SDS011;12897;50.812;4.430;2024-03-25T08:18:07;15.70;;;5.85;;
24799;SDS011;12897;50.812;4.430;2024-03-25T08:20:35;17.20;;;5.28;;
24799;SDS011;12897;50.812;4.430;2024-03-25T08:23:03;16.65;;;6.08;;
24799;SDS011;12897;50.812;4.430;2024-03-25T08:25:31;24.18;;;6.95;;
24799;SDS011;12897;50.812;4.430;2024-03-25T08:27:58;20.37;;;6.00;;
24799;SDS011;12897;50.812;4.430;2024-03-25T08:30:26;26.82;;;6.17;;
24799;SDS011;12897;50.812;4.430;2024-03-25T08:32:54;19.92;;;6.42;;
24799;SDS011;12897;50.812;4.430;2024-03-25T08:35:22;19.62;;;6.47;;
24799;SDS011;12897;50.812;4.430;2024-03-25T08:37:49;17.20;;;6.37;;
24799;SDS011;12897;50.812;4.430;2024-03-25T08:40:17;17.00;;;5.80;;
24799;SDS011;12897;50.812;4.430;2024-03-25T08:42:44;13.58;;;5.80;;
24799;SDS011;12897;50.812;4.430;2024-03-25T08:45:13;16.87;;;5.92;;
24799;SDS011;12897;50.812;4.430;2024-03-25T08:47:40;15.98;;;6.53;;
24799;SDS011;12897;50.812;4.430;2024-03-25T08:50:08;21.07;;;6.12;;
24799;SDS011;12897;50.812;4.430;2024-03-25T08:52:36;15.53;;;6.78;;
24799;SDS011;12897;50.812;4.430;2024-03-25T08:55:06;19.62;;;6.12;;
24799;SDS011;12897;50.812;4.430;2024-03-25T08:57:33;25.37;;;7.42;;
24799;SDS011;12897;50.812;4.430;2024-03-25T09:00:01;16.42;;;6.42;;
24799;SDS011;12897;50.812;4.430;2024-03-25T09:02:29;20.57;;;7.10;;
24799;SDS011;12897;50.812;4.430;2024-03-25T09:04:57;18.10;;;8.10;;
24799;SDS011;12897;50.812;4.430;2024-03-25T09:07:25;30.30;;;9.10;;
24799;SDS011;12897;50.812;4.430;2024-03-25T09:09:53;19.82;;;7.60;;
24799;SDS011;12897;50.812;4.430;2024-03-25T09:12:39;21.70;;;6.60;;
24799;SDS011;12897;50.812;4.430;2024-03-25T09:15:08;15.98;;;6.67;;
24799;SDS011;12897;50.812;4.430;2024-03-25T09:17:36;13.90;;;5.72;;
24799;SDS011;12897;50.812;4.430;2024-03-25T09:20:07;16.35;;;6.40;;
24799;SDS011;12897;50.812;4.430;2024-03-25T09:22:35;18.85;;;6.50;;
24799;SDS011;12897;50.812;4.430;2024-03-25T09:25:03;15.80;;;5.97;;
24799;SDS011;12897;50.812;4.430;2024-03-25T09:27:31;16.40;;;6.35;;
24799;SDS011;12897;50.812;4.430;2024-03-25T09:29:58;17.00;;;6.62;;
24799;SDS011;12897;50.812;4.430;2024-03-25T09:32:28;20.83;;;6.43;;
24799;SDS011;12897;50.812;4.430;2024-03-25T09:34:59;16.60;;;6.35;;
24799;SDS011;12897;50.812;4.430;2024-03-25T09:37:26;12.15;;;5.97;;
24799;SDS011;12897;50.812;4.430;2024-03-25T09:40:00;17.93;;;6.40;;
24799;SDS011;12897;50.812;4.430;2024-03-25T09:42:34;24.45;;;6.47;;
24799;SDS011;12897;50.812;4.430;2024-03-25T09:47:46;13.72;;;5.55;;
24799;SDS011;12897;50.812;4.430;2024-03-25T09:50:16;16.27;;;6.33;;
24799;SDS011;12897;50.812;4.430;2024-03-25T09:52:48;17.75;;;6.30;;
24799;SDS011;12897;50.812;4.430;2024-03-25T09:55:16;14.03;;;4.75;;
24799;SDS011;12897;50.812;4.430;2024-03-25T09:57:44;14.75;;;4.87;;
24799;SDS011;12897;50.812;4.430;2024-03-25T10:00:14;9.98;;;4.15;;
24799;SDS011;12897;50.812;4.430;2024-03-25T10:02:43;9.68;;;4.10;;
24799;SDS011;12897;50.812;4.430;2024-03-25T10:05:11;13.58;;;4.05;;
24799;SDS011;12897;50.812;4.430;2024-03-25T10:07:44;17.98;;;3.98;;
24799;SDS011;12897;50.812;4.430;2024-03-25T10:10:08;11.48;;;4.62;;
24799;SDS011;12897;50.812;4.430;2024-03-25T10:12:36;12.40;;;3.80;;
24799;SDS011;12897;50.812;4.430;2024-03-25T10:15:05;8.58;;;3.52;;
24799;SDS011;12897;50.812;4.430;2024-03-25T10:17:34;20.72;;;4.15;;
24799;SDS011;12897;50.812;4.430;2024-03-25T10:20:01;14.70;;;4.55;;
24799;SDS011;12897;50.812;4.430;2024-03-25T10:22:40;13.10;;;3.45;;
24799;SDS011;12897;50.812;4.430;2024-03-25T10:25:02;12.60;;;4.03;;
24799;SDS011;12897;50.812;4.430;2024-03-25T10:27:31;13.75;;;4.17;;
24799;SDS011;12897;50.812;4.430;2024-03-25T10:29:58;10.55;;;3.85;;
24799;SDS011;12897;50.812;4.430;2024-03-25T10:32:29;12.07;;;4.10;;
24799;SDS011;12897;50.812;4.430;2024-03-25T10:34:57;13.50;;;3.77;;
24799;SDS011;12897;50.812;4.430;2024-03-25T10:37:25;12.73;;;3.25;;
24799;SDS011;12897;50.812;4.430;2024-03-25T10:39:54;9.30;;;3.27;;
24799;SDS011;12897;50.812;4.430;2024-03-25T10:42:24;8.90;;;2.67;;
24799;SDS011;12897;50.812;4.430;2024-03-25T10:44:52;13.93;;;2.30;;
24799;SDS011;12897;50.812;4.430;2024-03-25T10:47:20;17.35;;;2.98;;
24799;SDS011;12897;50.812;4.430;2024-03-25T10:49:56;5.78;;;2.62;;
24799;SDS011;12897;50.812;4.430;2024-03-25T10:52:27;5.95;;;2.60;;
24799;SDS011;12897;50.812;4.430;2024-03-25T10:54:57;9.38;;;2.90;;
24799;SDS011;12897;50.812;4.430;2024-03-25T11:00:18;9.95;;;3.35;;
24799;SDS011;12897;50.812;4.430;2024-03-25T11:02:48;9.38;;;2.75;;
24799;SDS011;12897;50.812;4.430;2024-03-25T11:05:16;8.20;;;2.85;;
24799;SDS011;12897;50.812;4.430;2024-03-25T11:07:44;12.25;;;2.80;;
24799;SDS011;12897;50.812;4.430;2024-03-25T11:10:12;8.75;;;2.85;;
24799;SDS011;12897;50.812;4.430;2024-03-25T11:12:42;7.45;;;3.62;;
24799;SDS011;12897;50.812;4.430;2024-03-25T11:15:11;8.10;;;3.17;;
24799;SDS011;12897;50.812;4.430;2024-03-25T11:17:49;7.75;;;2.27;;
24799;SDS011;12897;50.812;4.430;2024-03-25T11:20:09;4.72;;;2.50;;
24799;SDS011;12897;50.812;4.430;2024-03-25T11:22:49;8.05;;;2.77;;
24799;SDS011;12897;50.812;4.430;2024-03-25T11:25:23;3.98;;;2.05;;
24799;SDS011;12897;50.812;4.430;2024-03-25T11:27:48;6.60;;;2.75;;
24799;SDS011;12897;50.812;4.430;2024-03-25T11:30:16;4.95;;;2.08;;
24799;SDS011;12897;50.812;4.430;2024-03-25T11:32:50;6.62;;;2.27;;
24799;SDS011;12897;50.812;4.430;2024-03-25T11:35:19;6.95;;;2.42;;
24799;SDS011;12897;50.812;4.430;2024-03-25T11:37:49;10.58;;;3.22;;
24799;SDS011;12897;50.812;4.430;2024-03-25T11:40:18;5.42;;;2.08;;
24799;SDS011;12897;50.812;4.430;2024-03-25T11:42:46;7.53;;;2.22;;
24799;SDS011;12897;50.812;4.430;2024-03-25T11:45:18;4.37;;;2.02;;
24799;SDS011;12897;50.812;4.430;2024-03-25T11:47:48;7.85;;;2.45;;
24799;SDS011;12897;50.812;4.430;2024-03-25T11:50:16;5.08;;;2.12;;
24799;SDS011;12897;50.812;4.430;2024-03-25T11:52:45;4.10;;;2.22;;
24799;SDS011;12897;50.812;4.430;2024-03-25T11:55:17;6.60;;;3.20;;
24799;SDS011;12897;50.812;4.430;2024-03-25T11:57:45;6.47;;;2.00;;
24799;SDS011;12897;50.812;4.430;2024-03-25T12:00:13;4.47;;;2.02;;
24799;SDS011;12897;50.812;4.430;2024-03-25T12:02:43;4.42;;;1.67;;
24799;SDS011;12897;50.812;4.430;2024-03-25T12:05:12;3.02;;;1.87;;
24799;SDS011;12897;50.812;4.430;2024-03-25T12:07:39;5.58;;;2.10;;
24799;SDS011;12897;50.812;4.430;2024-03-25T12:10:07;4.58;;;1.70;;
24799;SDS011;12897;50.812;4.430;2024-03-25T12:12:53;4.78;;;1.62;;
24799;SDS011;12897;50.812;4.430;2024-03-25T12:15:22;6.03;;;1.95;;
24799;SDS011;12897;50.812;4.430;2024-03-25T12:17:49;3.12;;;1.40;;
24799;SDS011;12897;50.812;4.430;2024-03-25T12:20:17;3.85;;;1.72;;
24799;SDS011;12897;50.812;4.430;2024-03-25T12:22:46;4.47;;;2.00;;
24799;SDS011;12897;50.812;4.430;2024-03-25T12:25:15;4.65;;;1.87;;
24799;SDS011;12897;50.812;4.430;2024-03-25T12:27:45;5.62;;;2.05;;
24799;SDS011;12897;50.812;4.430;2024-03-25T12:30:13;4.58;;;1.95;;
24799;SDS011;12897;50.812;4.430;2024-03-25T12:32:42;4.67;;;1.80;;
24799;SDS011;12897;50.812;4.430;2024-03-25T12:35:11;6.33;;;1.95;;
24799;SDS011;12897;50.812;4.430;2024-03-25T12:37:40;7.10;;;2.10;;
24799;SDS011;12897;50.812;4.430;2024-03-25T12:40:09;4.42;;;1.20;;
24799;SDS011;12897;50.812;4.430;2024-03-25T12:42:38;5.85;;;1.92;;
24799;SDS011;12897;50.812;4.430;2024-03-25T12:45:06;5.08;;;1.60;;
24799;SDS011;12897;50.812;4.430;2024-03-25T12:47:34;3.45;;;1.37;;
24799;SDS011;12897;50.812;4.430;2024-03-25T12:50:02;4.08;;;1.47;;
24799;SDS011;12897;50.812;4.430;2024-03-25T12:52:31;2.62;;;1.40;;
24799;SDS011;12897;50.812;4.430;2024-03-25T12:54:59;3.87;;;1.40;;
24799;SDS011;12897;50.812;4.430;2024-03-25T12:57:26;1.85;;;1.12;;
24799;SDS011;12897;50.812;4.430;2024-03-25T12:59:54;4.20;;;2.17;;
24799;SDS011;12897;50.812;4.430;2024-03-25T13:02:21;3.08;;;1.32;;
24799;SDS011;12897;50.812;4.430;2024-03-25T13:04:49;2.95;;;1.40;;
24799;SDS011;12897;50.812;4.430;2024-03-25T13:07:16;2.58;;;1.10;;
24799;SDS011;12897;50.812;4.430;2024-03-25T13:09:44;4.03;;;1.72;;
24799;SDS011;12897;50.812;4.430;2024-03-25T13:12:12;5.03;;;1.32;;
24799;SDS011;12897;50.812;4.430;2024-03-25T13:14:39;2.25;;;1.30;;
24799;SDS011;12897;50.812;4.430;2024-03-25T13:17:07;3.75;;;1.12;;
24799;SDS011;12897;50.812;4.430;2024-03-25T13:19:34;3.20;;;1.40;;
24799;SDS011;12897;50.812;4.430;2024-03-25T13:22:02;9.08;;;3.33;;
24799;SDS011;12897;50.812;4.430;2024-03-25T13:24:31;4.42;;;1.17;;
24799;SDS011;12897;50.812;4.430;2024-03-25T13:26:59;4.20;;;1.10;;
24799;SDS011;12897;50.812;4.430;2024-03-25T13:29:26;3.08;;;1.42;;
24799;SDS011;12897;50.812;4.430;2024-03-25T13:31:54;2.92;;;1.30;;
24799;SDS011;12897;50.812;4.430;2024-03-25T13:34:21;2.60;;;1.00;;
24799;SDS011;12897;50.812;4.430;2024-03-25T13:36:49;3.47;;;1.25;;
24799;SDS011;12897;50.812;4.430;2024-03-25T13:39:16;4.40;;;1.70;;
24799;SDS011;12897;50.812;4.430;2024-03-25T13:41:44;5.60;;;1.47;;
24799;SDS011;12897;50.812;4.430;2024-03-25T13:44:11;5.37;;;1.57;;
24799;SDS011;12897;50.812;4.430;2024-03-25T13:46:39;4.90;;;1.60;;
24799;SDS011;12897;50.812;4.430;2024-03-25T13:49:06;3.50;;;1.77;;
24799;SDS011;12897;50.812;4.430;2024-03-25T13:51:36;6.47;;;1.40;;
24799;SDS011;12897;50.812;4.430;2024-03-25T13:54:04;5.10;;;1.40;;
24799;SDS011;12897;50.812;4.430;2024-03-25T13:56:32;4.27;;;1.57;;
24799;SDS011;12897;50.812;4.430;2024-03-25T13:59:00;3.52;;;1.25;;
24799;SDS011;12897;50.812;4.430;2024-03-25T14:01:27;3.90;;;1.47;;
24799;SDS011;12897;50.812;4.430;2024-03-25T14:03:55;4.33;;;1.37;;
24799;SDS011;12897;50.812;4.430;2024-03-25T14:06:22;3.72;;;1.20;;
24799;SDS011;12897;50.812;4.430;2024-03-25T14:08:50;4.75;;;1.50;;
24799;SDS011;12897;50.812;4.430;2024-03-25T14:11:17;5.75;;;1.27;;
24799;SDS011;12897;50.812;4.430;2024-03-25T14:13:45;2.30;;;1.30;;
24799;SDS011;12897;50.812;4.430;2024-03-25T14:16:13;6.05;;;1.75;;
24799;SDS011;12897;50.812;4.430;2024-03-25T14:18:40;6.40;;;1.70;;
24799;SDS011;12897;50.812;4.430;2024-03-25T14:21:08;3.42;;;1.45;;
24799;SDS011;12897;50.812;4.430;2024-03-25T14:23:36;4.83;;;1.25;;
24799;SDS011;12897;50.812;4.430;2024-03-25T14:26:03;5.78;;;1.75;;
24799;SDS011;12897;50.812;4.430;2024-03-25T14:28:30;4.12;;;1.30;;
24799;SDS011;12897;50.812;4.430;2024-03-25T14:30:58;3.22;;;1.25;;
24799;SDS011;12897;50.812;4.430;2024-03-25T14:33:26;4.33;;;1.47;;
24799;SDS011;12897;50.812;4.430;2024-03-25T14:35:53;3.65;;;1.12;;
24799;SDS011;12897;50.812;4.430;2024-03-25T14:38:21;5.55;;;1.32;;
24799;SDS011;12897;50.812;4.430;2024-03-25T14:40:48;4.60;;;1.52;;
24799;SDS011;12897;50.812;4.430;2024-03-25T14:43:16;7.08;;;1.47;;
24799;SDS011;12897;50.812;4.430;2024-03-25T14:45:45;2.33;;;1.30;;
24799;SDS011;12897;50.812;4.430;2024-03-25T14:48:13;4.03;;;1.52;;
24799;SDS011;12897;50.812;4.430;2024-03-25T14:50:40;4.70;;;1.40;;
24799;SDS011;12897;50.812;4.430;2024-03-25T14:53:08;4.60;;;1.55;;
24799;SDS011;12897;50.812;4.430;2024-03-25T14:55:36;3.25;;;1.12;;